M/T Arcadia — SY7849 — position and weather

sailwx.info

Track history (hours):
 
Tides and Currents Weather Stations Pressure Air Temp Water Temp Dewpoint Dewpoint Depression Visibility Wind Speed Wind Dir Waves Ship Positions

M/T Arcadia

Last reported at 2014-Oct-23 13:17 UTC. Time now 2014-Oct-25 02:53 UTC.
Position N 37°20' E 023°23'.

Length 76 m; draft 4.8 m.

Type: Ship. MMSI: 240560000.

Date/timePositionNaut miles runAvg speedWind from/ knotsBaromVisibWave heightAir tempDewpointWater temp
2014-Oct-23 13:17N 37°20' E 023°23'5 7.1
2014-Oct-23 12:30N 37°23' E 023°29'13 6.4
2014-Oct-23 10:26N 37°36' E 023°27'8 8.8
2014-Oct-23 09:33N 37°40' E 023°19'9 8.8
2014-Oct-23 08:33N 37°48' E 023°13'9 8.9
2014-Oct-23 07:33N 37°55' E 023°06'0 0.0
2014-Oct-22 16:17N 37°55' E 023°06'0 0.2
2014-Oct-22 14:32N 37°55' E 023°06'0 0.0
2014-Oct-22 13:26N 37°55' E 023°06'0 0.0
2014-Oct-22 12:23N 37°55' E 023°06'0 0.4
2014-Oct-22 11:12N 37°54' E 023°07'6 8.6
2014-Oct-22 10:33N 37°50' E 023°11'9 9.3
2014-Oct-22 09:33N 37°42' E 023°17'9 9.1
2014-Oct-22 08:33N 37°37' E 023°27'49 9.3
2014-Oct-22 03:16N 36°50' E 023°43'10 9.9
2014-Oct-22 02:14N 36°40' E 023°46'7 9.0
2014-Oct-22 01:29N 36°34' E 023°50'31 9.2
2014-Oct-21 22:07N 36°03' E 023°57'7 9.3
2014-Oct-21 21:24N 35°57' E 023°58'45 1.4
2014-Oct-20 13:16N 36°28' E 023°18'6 8.3
2014-Oct-20 12:33N 36°33' E 023°14'8 8.4
2014-Oct-20 11:33N 36°40' E 023°08'17 8.2
2014-Oct-20 09:28N 36°58' E 023°09'29 1.2
2014-Oct-19 09:14N 37°24' E 023°23'11 6.3
2014-Oct-19 07:32N 37°31' E 023°34'7 7.5
2014-Oct-19 06:33N 37°36' E 023°28'7 7.3
2014-Oct-19 05:33N 37°40' E 023°20'8 8.0
2014-Oct-19 04:33N 37°46' E 023°14'8 8.0
2014-Oct-19 03:33N 37°53' E 023°08'3 0.4
2014-Oct-18 19:32N 37°55' E 023°05'0 0.0
2014-Oct-18 18:26N 37°55' E 023°05'0 0.0
2014-Oct-18 08:29N 37°55' E 023°05'0 0.0
2014-Oct-18 06:05N 37°55' E 023°05'4 1.1
2014-Oct-18 02:24N 37°54' E 023°10'6 7.0
2014-Oct-18 01:33N 37°53' E 023°18'7 7.1
2014-Oct-18 00:33N 37°52' E 023°27'8 7.8
2014-Oct-17 23:34N 37°56' E 023°35'1 1.0
2014-Oct-17 22:33N 37°57' E 023°35'0 0.0
2014-Oct-17 21:33N 37°57' E 023°35'0 0.0
2014-Oct-17 20:33N 37°57' E 023°35'0 0.0
2014-Oct-17 19:33N 37°57' E 023°35'0 0.0
2014-Oct-17 18:33N 37°57' E 023°35'0 0.0
2014-Oct-17 17:33N 37°57' E 023°35'0 0.0
2014-Oct-17 16:33N 37°57' E 023°35'0 0.0
2014-Oct-17 15:33N 37°57' E 023°35'0 0.0
2014-Oct-17 14:33N 37°57' E 023°35'0 0.0
2014-Oct-17 13:33N 37°57' E 023°35'0 0.0
2014-Oct-17 12:33N 37°57' E 023°35'0 0.0
2014-Oct-17 11:33N 37°57' E 023°35'0 0.0
2014-Oct-17 10:33N 37°57' E 023°35'0 0.0
2014-Oct-17 09:33N 37°57' E 023°35'0 0.0
2014-Oct-17 08:33N 37°57' E 023°35'0 0.0
2014-Oct-17 07:33N 37°57' E 023°35'0 0.0
2014-Oct-17 06:33N 37°57' E 023°35'0 0.0
2014-Oct-17 05:33N 37°57' E 023°35'2 2.4
2014-Oct-17 04:33N 37°55' E 023°34'1 0.8
2014-Oct-17 03:33N 37°55' E 023°33'0 0.0
2014-Oct-17 02:33N 37°55' E 023°33'0 0.0
2014-Oct-17 01:33N 37°55' E 023°33'0 0.0
2014-Oct-17 00:33N 37°55' E 023°33'0 0.0
2014-Oct-16 23:24N 37°55' E 023°33'0 0.0
2014-Oct-16 22:33N 37°55' E 023°33'0 0.0
2014-Oct-16 21:33N 37°55' E 023°33'0 0.0
2014-Oct-16 20:33N 37°55' E 023°33'4 3.7
2014-Oct-16 19:33N 37°52' E 023°30'8 8.3
2014-Oct-16 18:33N 37°51' E 023°19'9 8.8
2014-Oct-16 17:33N 37°54' E 023°08'3 0.2
2014-Oct-16 03:30N 37°55' E 023°05'0 0.0
2014-Oct-16 00:18N 37°55' E 023°05'1 0.7
2014-Oct-15 23:31N 37°55' E 023°06'0 0.0
2014-Oct-15 21:07N 37°55' E 023°06'0 0.1
2014-Oct-15 20:31N 37°55' E 023°06'0 0.0
2014-Oct-15 19:22N 37°55' E 023°06'0 0.0
2014-Oct-15 18:25N 37°55' E 023°06'0 0.0
2014-Oct-15 16:28N 37°55' E 023°06'0 0.0
2014-Oct-15 15:22N 37°55' E 023°06'0 0.0
2014-Oct-15 14:31N 37°55' E 023°06'0 0.0
2014-Oct-15 13:19N 37°55' E 023°06'0 0.0
2014-Oct-15 12:22N 37°55' E 023°06'0 0.0
2014-Oct-15 11:19N 37°55' E 023°06'0 0.0
2014-Oct-15 09:34N 37°55' E 023°06'8 8.0
2014-Oct-15 08:34N 37°49' E 023°12'9 9.0
2014-Oct-15 07:33N 37°41' E 023°18'9 8.8
2014-Oct-15 06:33N 37°38' E 023°28'9 8.6
2014-Oct-15 05:32N 37°31' E 023°35'9 9.1
2014-Oct-15 04:33N 37°22' E 023°38'9 8.9
2014-Oct-15 03:33N 37°13' E 023°39'18 8.9
2014-Oct-15 01:33N 36°56' E 023°42'8 8.3
2014-Oct-15 00:34N 36°48' E 023°44'9 8.9
2014-Oct-14 23:33N 36°39' E 023°46'9 9.0
2014-Oct-14 22:33N 36°30' E 023°49'9 9.3
2014-Oct-14 21:34N 36°21' E 023°51'11 9.2
2014-Oct-14 20:23N 36°11' E 023°54'19 9.6
2014-Oct-14 18:22N 35°51' E 023°58'  
Track history (hours):
 
Tides and Currents Weather Stations Pressure Air Temp Water Temp Dewpoint Dewpoint Depression Visibility Wind Speed Wind Dir Waves Ship Positions

M/T Arcadia

Last reported at 2014-Oct-23 13:17 UTC. Time now 2014-Oct-25 02:53 UTC.
Position N 37°20' E 023°23'.

Length 76 m; draft 4.8 m.

Type: Ship. MMSI: 240560000.

Date/timePositionNaut miles runAvg speedWind from/ knotsBaromVisibWave heightAir tempDewpointWater temp
2014-Oct-23 13:17N 37°20' E 023°23'5 7.1
2014-Oct-23 12:30N 37°23' E 023°29'13 6.4
2014-Oct-23 10:26N 37°36' E 023°27'8 8.8
2014-Oct-23 09:33N 37°40' E 023°19'9 8.8
2014-Oct-23 08:33N 37°48' E 023°13'9 8.9
2014-Oct-23 07:33N 37°55' E 023°06'0 0.0
2014-Oct-22 16:17N 37°55' E 023°06'0 0.2
2014-Oct-22 14:32N 37°55' E 023°06'0 0.0
2014-Oct-22 13:26N 37°55' E 023°06'0 0.0
2014-Oct-22 12:23N 37°55' E 023°06'0 0.4
2014-Oct-22 11:12N 37°54' E 023°07'6 8.6
2014-Oct-22 10:33N 37°50' E 023°11'9 9.3
2014-Oct-22 09:33N 37°42' E 023°17'9 9.1
2014-Oct-22 08:33N 37°37' E 023°27'49 9.3
2014-Oct-22 03:16N 36°50' E 023°43'10 9.9
2014-Oct-22 02:14N 36°40' E 023°46'7 9.0
2014-Oct-22 01:29N 36°34' E 023°50'31 9.2
2014-Oct-21 22:07N 36°03' E 023°57'7 9.3
2014-Oct-21 21:24N 35°57' E 023°58'45 1.4
2014-Oct-20 13:16N 36°28' E 023°18'6 8.3
2014-Oct-20 12:33N 36°33' E 023°14'8 8.4
2014-Oct-20 11:33N 36°40' E 023°08'17 8.2
2014-Oct-20 09:28N 36°58' E 023°09'29 1.2
2014-Oct-19 09:14N 37°24' E 023°23'11 6.3
2014-Oct-19 07:32N 37°31' E 023°34'7 7.5
2014-Oct-19 06:33N 37°36' E 023°28'7 7.3
2014-Oct-19 05:33N 37°40' E 023°20'8 8.0
2014-Oct-19 04:33N 37°46' E 023°14'8 8.0
2014-Oct-19 03:33N 37°53' E 023°08'3 0.4
2014-Oct-18 19:32N 37°55' E 023°05'0 0.0
2014-Oct-18 18:26N 37°55' E 023°05'0 0.0
2014-Oct-18 08:29N 37°55' E 023°05'0 0.0
2014-Oct-18 06:05N 37°55' E 023°05'4 1.1
2014-Oct-18 02:24N 37°54' E 023°10'6 7.0
2014-Oct-18 01:33N 37°53' E 023°18'7 7.1
2014-Oct-18 00:33N 37°52' E 023°27'8 7.8
2014-Oct-17 23:34N 37°56' E 023°35'1 1.0
2014-Oct-17 22:33N 37°57' E 023°35'0 0.0
2014-Oct-17 21:33N 37°57' E 023°35'0 0.0
2014-Oct-17 20:33N 37°57' E 023°35'0 0.0
2014-Oct-17 19:33N 37°57' E 023°35'0 0.0
2014-Oct-17 18:33N 37°57' E 023°35'0 0.0
2014-Oct-17 17:33N 37°57' E 023°35'0 0.0
2014-Oct-17 16:33N 37°57' E 023°35'0 0.0
2014-Oct-17 15:33N 37°57' E 023°35'0 0.0
2014-Oct-17 14:33N 37°57' E 023°35'0 0.0
2014-Oct-17 13:33N 37°57' E 023°35'0 0.0
2014-Oct-17 12:33N 37°57' E 023°35'0 0.0
2014-Oct-17 11:33N 37°57' E 023°35'0 0.0
2014-Oct-17 10:33N 37°57' E 023°35'0 0.0
2014-Oct-17 09:33N 37°57' E 023°35'0 0.0
2014-Oct-17 08:33N 37°57' E 023°35'0 0.0
2014-Oct-17 07:33N 37°57' E 023°35'0 0.0
2014-Oct-17 06:33N 37°57' E 023°35'0 0.0
2014-Oct-17 05:33N 37°57' E 023°35'2 2.4
2014-Oct-17 04:33N 37°55' E 023°34'1 0.8
2014-Oct-17 03:33N 37°55' E 023°33'0 0.0
2014-Oct-17 02:33N 37°55' E 023°33'0 0.0
2014-Oct-17 01:33N 37°55' E 023°33'0 0.0
2014-Oct-17 00:33N 37°55' E 023°33'0 0.0
2014-Oct-16 23:24N 37°55' E 023°33'0 0.0
2014-Oct-16 22:33N 37°55' E 023°33'0 0.0
2014-Oct-16 21:33N 37°55' E 023°33'0 0.0
2014-Oct-16 20:33N 37°55' E 023°33'4 3.7
2014-Oct-16 19:33N 37°52' E 023°30'8 8.3
2014-Oct-16 18:33N 37°51' E 023°19'9 8.8
2014-Oct-16 17:33N 37°54' E 023°08'3 0.2
2014-Oct-16 03:30N 37°55' E 023°05'0 0.0
2014-Oct-16 00:18N 37°55' E 023°05'1 0.7
2014-Oct-15 23:31N 37°55' E 023°06'0 0.0
2014-Oct-15 21:07N 37°55' E 023°06'0 0.1
2014-Oct-15 20:31N 37°55' E 023°06'0 0.0
2014-Oct-15 19:22N 37°55' E 023°06'0 0.0
2014-Oct-15 18:25N 37°55' E 023°06'0 0.0
2014-Oct-15 16:28N 37°55' E 023°06'0 0.0
2014-Oct-15 15:22N 37°55' E 023°06'0 0.0
2014-Oct-15 14:31N 37°55' E 023°06'0 0.0
2014-Oct-15 13:19N 37°55' E 023°06'0 0.0
2014-Oct-15 12:22N 37°55' E 023°06'0 0.0
2014-Oct-15 11:19N 37°55' E 023°06'0 0.0
2014-Oct-15 09:34N 37°55' E 023°06'8 8.0
2014-Oct-15 08:34N 37°49' E 023°12'9 9.0
2014-Oct-15 07:33N 37°41' E 023°18'9 8.8
2014-Oct-15 06:33N 37°38' E 023°28'9 8.6
2014-Oct-15 05:32N 37°31' E 023°35'9 9.1
2014-Oct-15 04:33N 37°22' E 023°38'9 8.9
2014-Oct-15 03:33N 37°13' E 023°39'18 8.9
2014-Oct-15 01:33N 36°56' E 023°42'8 8.3
2014-Oct-15 00:34N 36°48' E 023°44'9 8.9
2014-Oct-14 23:33N 36°39' E 023°46'9 9.0
2014-Oct-14 22:33N 36°30' E 023°49'9 9.3
2014-Oct-14 21:34N 36°21' E 023°51'11 9.2
2014-Oct-14 20:23N 36°11' E 023°54'19 9.6
2014-Oct-14 18:22N 35°51' E 023°58'  

Dump ship's entire track history